sensor_id;sensor_type;location;lat;lon;timestamp;pressure;altitude;pressure_sealevel;temperature;humidity
31285;BME280;56605;51.516;6.742;2023-05-19T00:00:17;102389.81;;;8.83;100.00
31285;BME280;56605;51.516;6.742;2023-05-19T00:02:44;102393.75;;;8.66;100.00
31285;BME280;56605;51.516;6.742;2023-05-19T00:05:10;102394.56;;;8.55;100.00
31285;BME280;56605;51.516;6.742;2023-05-19T00:07:40;102388.78;;;8.23;100.00
31285;BME280;56605;51.516;6.742;2023-05-19T00:10:07;102394.56;;;8.17;100.00
31285;BME280;56605;51.516;6.742;2023-05-19T00:12:32;102397.44;;;8.14;100.00
31285;BME280;56605;51.516;6.742;2023-05-19T00:14:58;102398.31;;;8.39;100.00
31285;BME280;56605;51.516;6.742;2023-05-19T00:17:24;102400.00;;;8.16;100.00
31285;BME280;56605;51.516;6.742;2023-05-19T00:19:49;102393.00;;;8.39;100.00
31285;BME280;56605;51.516;6.742;2023-05-19T00:22:22;102399.03;;;8.41;100.00
31285;BME280;56605;51.516;6.742;2023-05-19T00:24:48;102396.19;;;8.69;100.00
31285;BME280;56605;51.516;6.742;2023-05-19T00:27:13;102396.09;;;8.70;100.00
31285;BME280;56605;51.516;6.742;2023-05-19T00:29:38;102397.97;;;8.57;100.00
31285;BME280;56605;51.516;6.742;2023-05-19T00:32:04;102394.56;;;8.55;100.00
31285;BME280;56605;51.516;6.742;2023-05-19T00:34:29;102407.75;;;8.56;100.00
31285;BME280;56605;51.516;6.742;2023-05-19T00:36:54;102388.88;;;8.59;100.00
31285;BME280;56605;51.516;6.742;2023-05-19T00:39:22;102394.00;;;8.62;100.00
31285;BME280;56605;51.516;6.742;2023-05-19T00:41:47;102396.53;;;8.64;100.00
31285;BME280;56605;51.516;6.742;2023-05-19T00:44:13;102391.97;;;8.66;100.00
31285;BME280;56605;51.516;6.742;2023-05-19T00:46:39;102400.50;;;8.58;100.00
31285;BME280;56605;51.516;6.742;2023-05-19T00:49:05;102396.75;;;8.61;100.00
31285;BME280;56605;51.516;6.742;2023-05-19T00:51:30;102403.41;;;8.55;100.00
31285;BME280;56605;51.516;6.742;2023-05-19T00:53:56;102398.00;;;8.31;100.00
31285;BME280;56605;51.516;6.742;2023-05-19T00:56:22;102398.38;;;8.26;100.00
31285;BME280;56605;51.516;6.742;2023-05-19T00:58:49;102402.44;;;8.06;100.00
31285;BME280;56605;51.516;6.742;2023-05-19T01:01:15;102400.38;;;8.22;100.00
31285;BME280;56605;51.516;6.742;2023-05-19T01:03:42;102405.50;;;8.25;100.00
31285;BME280;56605;51.516;6.742;2023-05-19T01:06:07;102402.28;;;8.33;100.00
31285;BME280;56605;51.516;6.742;2023-05-19T01:08:35;102395.88;;;8.36;100.00
31285;BME280;56605;51.516;6.742;2023-05-19T01:11:02;102401.25;;;8.10;100.00
31285;BME280;56605;51.516;6.742;2023-05-19T01:13:28;102401.69;;;8.17;100.00
31285;BME280;56605;51.516;6.742;2023-05-19T01:24:31;102390.69;;;7.84;100.00
31285;BME280;56605;51.516;6.742;2023-05-19T01:29:46;102385.63;;;7.55;100.00
31285;BME280;56605;51.516;6.742;2023-05-19T01:32:19;102388.16;;;7.56;100.00
31285;BME280;56605;51.516;6.742;2023-05-19T01:34:48;102386.34;;;7.31;100.00
31285;BME280;56605;51.516;6.742;2023-05-19T01:37:16;102389.22;;;7.15;100.00
31285;BME280;56605;51.516;6.742;2023-05-19T01:39:43;102385.38;;;7.19;100.00
31285;BME280;56605;51.516;6.742;2023-05-19T01:42:09;102391.22;;;7.24;100.00
31285;BME280;56605;51.516;6.742;2023-05-19T01:44:36;102396.78;;;7.34;100.00
31285;BME280;56605;51.516;6.742;2023-05-19T01:47:03;102392.75;;;7.28;100.00
31285;BME280;56605;51.516;6.742;2023-05-19T01:49:28;102398.69;;;7.32;100.00
31285;BME280;56605;51.516;6.742;2023-05-19T01:51:55;102396.94;;;7.05;100.00
31285;BME280;56605;51.516;6.742;2023-05-19T01:54:20;102400.25;;;7.08;100.00
31285;BME280;56605;51.516;6.742;2023-05-19T01:56:56;102400.75;;;7.01;100.00
31285;BME280;56605;51.516;6.742;2023-05-19T02:02:51;102397.28;;;7.13;100.00
31285;BME280;56605;51.516;6.742;2023-05-19T02:05:26;102393.34;;;7.06;100.00
31285;BME280;56605;51.516;6.742;2023-05-19T02:08:04;102395.53;;;6.99;100.00
31285;BME280;56605;51.516;6.742;2023-05-19T02:10:36;102401.19;;;6.94;100.00
31285;BME280;56605;51.516;6.742;2023-05-19T02:13:05;102395.53;;;6.99;100.00
31285;BME280;56605;51.516;6.742;2023-05-19T02:15:38;102395.44;;;7.01;100.00
31285;BME280;56605;51.516;6.742;2023-05-19T02:18:11;102400.44;;;6.92;100.00
31285;BME280;56605;51.516;6.742;2023-05-19T02:20:38;102400.44;;;6.92;100.00
31285;BME280;56605;51.516;6.742;2023-05-19T02:23:04;102399.28;;;7.09;100.00
31285;BME280;56605;51.516;6.742;2023-05-19T02:25:29;102407.03;;;7.00;100.00
31285;BME280;56605;51.516;6.742;2023-05-19T02:27:57;102398.56;;;7.07;100.00
31285;BME280;56605;51.516;6.742;2023-05-19T02:30:22;102393.94;;;6.83;100.00
31285;BME280;56605;51.516;6.742;2023-05-19T02:32:48;102394.06;;;6.95;100.00
31285;BME280;56605;51.516;6.742;2023-05-19T02:35:16;102389.72;;;6.94;100.00
31285;BME280;56605;51.516;6.742;2023-05-19T02:37:45;102382.91;;;6.90;100.00
31285;BME280;56605;51.516;6.742;2023-05-19T02:40:13;102383.09;;;6.87;100.00
31285;BME280;56605;51.516;6.742;2023-05-19T02:42:39;102381.81;;;6.79;100.00
31285;BME280;56605;51.516;6.742;2023-05-19T02:45:04;102374.47;;;6.83;100.00
31285;BME280;56605;51.516;6.742;2023-05-19T02:47:30;102378.66;;;6.59;100.00
31285;BME280;56605;51.516;6.742;2023-05-19T02:49:55;102371.41;;;6.76;100.00
31285;BME280;56605;51.516;6.742;2023-05-19T02:52:21;102372.47;;;6.74;100.00
31285;BME280;56605;51.516;6.742;2023-05-19T02:54:46;102366.88;;;6.64;100.00
31285;BME280;56605;51.516;6.742;2023-05-19T02:57:11;102360.66;;;6.65;100.00
31285;BME280;56605;51.516;6.742;2023-05-19T02:59:37;102366.94;;;6.49;100.00
31285;BME280;56605;51.516;6.742;2023-05-19T03:02:02;102368.88;;;6.47;100.00
31285;BME280;56605;51.516;6.742;2023-05-19T03:04:28;102371.00;;;6.55;100.00
31285;BME280;56605;51.516;6.742;2023-05-19T03:06:56;102374.56;;;6.68;100.00
31285;BME280;56605;51.516;6.742;2023-05-19T03:09:24;102371.16;;;6.66;100.00
31285;BME280;56605;51.516;6.742;2023-05-19T03:11:49;102368.25;;;6.29;100.00
31285;BME280;56605;51.516;6.742;2023-05-19T03:14:15;102374.66;;;6.39;100.00
31285;BME280;56605;51.516;6.742;2023-05-19T03:16:42;102379.59;;;6.45;100.00
31285;BME280;56605;51.516;6.742;2023-05-19T03:19:11;102380.47;;;6.31;100.00
31285;BME280;56605;51.516;6.742;2023-05-19T03:21:36;102381.66;;;6.13;100.00
31285;BME280;56605;51.516;6.742;2023-05-19T03:24:02;102378.50;;;6.20;100.00
31285;BME280;56605;51.516;6.742;2023-05-19T03:26:27;102379.63;;;6.16;100.00
31285;BME280;56605;51.516;6.742;2023-05-19T03:28:53;102373.75;;;6.26;100.00
31285;BME280;56605;51.516;6.742;2023-05-19T03:31:18;102371.88;;;6.13;100.00
31285;BME280;56605;51.516;6.742;2023-05-19T03:33:44;102380.78;;;6.12;100.00
31285;BME280;56605;51.516;6.742;2023-05-19T03:36:09;102376.84;;;6.32;100.00
31285;BME280;56605;51.516;6.742;2023-05-19T03:38:36;102374.34;;;6.16;100.00
31285;BME280;56605;51.516;6.742;2023-05-19T03:41:02;102381.03;;;6.22;100.00
31285;BME280;56605;51.516;6.742;2023-05-19T03:43:27;102388.66;;;6.41;100.00
31285;BME280;56605;51.516;6.742;2023-05-19T03:45:52;102388.72;;;6.27;100.00
31285;BME280;56605;51.516;6.742;2023-05-19T03:48:18;102389.00;;;6.37;100.00
31285;BME280;56605;51.516;6.742;2023-05-19T03:50:43;102382.69;;;6.52;100.00
31285;BME280;56605;51.516;6.742;2023-05-19T03:53:08;102388.56;;;6.43;100.00
31285;BME280;56605;51.516;6.742;2023-05-19T03:55:34;102376.72;;;6.49;100.00
31285;BME280;56605;51.516;6.742;2023-05-19T03:58:01;102382.69;;;6.52;100.00
31285;BME280;56605;51.516;6.742;2023-05-19T04:00:27;102386.28;;;6.51;100.00
31285;BME280;56605;51.516;6.742;2023-05-19T04:02:52;102381.97;;;6.36;100.00
31285;BME280;56605;51.516;6.742;2023-05-19T04:05:17;102375.97;;;6.46;100.00
31285;BME280;56605;51.516;6.742;2023-05-19T04:07:43;102384.91;;;6.45;100.00
31285;BME280;56605;51.516;6.742;2023-05-19T04:10:11;102383.47;;;6.40;100.00
31285;BME280;56605;51.516;6.742;2023-05-19T04:12:36;102387.75;;;6.42;100.00
31285;BME280;56605;51.516;6.742;2023-05-19T04:15:02;102391.41;;;6.54;100.00
31285;BME280;56605;51.516;6.742;2023-05-19T04:17:27;102388.13;;;6.64;100.00
31285;BME280;56605;51.516;6.742;2023-05-19T04:19:54;102389.19;;;6.61;100.00
31285;BME280;56605;51.516;6.742;2023-05-19T04:22:19;102394.59;;;6.59;100.00
31285;BME280;56605;51.516;6.742;2023-05-19T04:24:45;102397.81;;;6.65;100.00
31285;BME280;56605;51.516;6.742;2023-05-19T04:27:11;102397.47;;;6.69;100.00
31285;BME280;56605;51.516;6.742;2023-05-19T04:29:37;102394.72;;;6.71;100.00
31285;BME280;56605;51.516;6.742;2023-05-19T04:32:04;102401.22;;;6.80;100.00
31285;BME280;56605;51.516;6.742;2023-05-19T04:34:33;102397.31;;;6.85;100.00
31285;BME280;56605;51.516;6.742;2023-05-19T04:36:59;102393.09;;;6.96;100.00
31285;BME280;56605;51.516;6.742;2023-05-19T04:39:24;102393.44;;;7.04;100.00
31285;BME280;56605;51.516;6.742;2023-05-19T04:41:50;102398.56;;;7.07;100.00
31285;BME280;56605;51.516;6.742;2023-05-19T04:44:15;102394.53;;;7.15;100.00
31285;BME280;56605;51.516;6.742;2023-05-19T04:46:42;102395.59;;;7.12;100.00
31285;BME280;56605;51.516;6.742;2023-05-19T04:49:09;102397.94;;;7.30;100.00
31285;BME280;56605;51.516;6.742;2023-05-19T04:51:37;102396.47;;;7.39;100.00
31285;BME280;56605;51.516;6.742;2023-05-19T04:54:05;102400.50;;;7.44;100.00
31285;BME280;56605;51.516;6.742;2023-05-19T04:56:31;102398.16;;;7.40;100.00
31285;BME280;56605;51.516;6.742;2023-05-19T04:58:56;102396.97;;;7.44;100.00
31285;BME280;56605;51.516;6.742;2023-05-19T05:01:21;102401.78;;;7.52;100.00
31285;BME280;56605;51.516;6.742;2023-05-19T05:03:50;102402.94;;;7.60;100.00
31285;BME280;56605;51.516;6.742;2023-05-19T05:06:19;102399.19;;;7.76;100.00
31285;BME280;56605;51.516;6.742;2023-05-19T05:08:45;102403.47;;;7.79;100.00
31285;BME280;56605;51.516;6.742;2023-05-19T05:11:10;102400.47;;;7.83;100.00
31285;BME280;56605;51.516;6.742;2023-05-19T05:13:36;102400.13;;;8.01;100.00
31285;BME280;56605;51.516;6.742;2023-05-19T05:16:02;102403.16;;;8.21;100.00
31285;BME280;56605;51.516;6.742;2023-05-19T05:18:32;102402.72;;;8.27;100.00
31285;BME280;56605;51.516;6.742;2023-05-19T05:20:57;102400.78;;;8.29;100.00
31285;BME280;56605;51.516;6.742;2023-05-19T05:23:23;102402.44;;;8.43;100.00
31285;BME280;56605;51.516;6.742;2023-05-19T05:25:49;102397.41;;;8.52;100.00
31285;BME280;56605;51.516;6.742;2023-05-19T05:28:14;102404.97;;;8.58;100.00
31285;BME280;56605;51.516;6.742;2023-05-19T05:30:39;102399.59;;;8.71;100.00
31285;BME280;56605;51.516;6.742;2023-05-19T05:33:05;102396.25;;;8.80;100.00
31285;BME280;56605;51.516;6.742;2023-05-19T05:35:31;102388.88;;;8.84;100.00
31285;BME280;56605;51.516;6.742;2023-05-19T05:37:56;102385.91;;;9.00;100.00
31285;BME280;56605;51.516;6.742;2023-05-19T05:40:21;102400.00;;;9.13;100.00
31285;BME280;56605;51.516;6.742;2023-05-19T05:42:46;102388.00;;;9.19;100.00
31285;BME280;56605;51.516;6.742;2023-05-19T05:45:12;102384.38;;;9.32;100.00
31285;BME280;56605;51.516;6.742;2023-05-19T05:47:37;102393.25;;;9.44;100.00
31285;BME280;56605;51.516;6.742;2023-05-19T05:50:07;102390.13;;;9.50;100.00
31285;BME280;56605;51.516;6.742;2023-05-19T05:52:36;102377.00;;;9.58;100.00
31285;BME280;56605;51.516;6.742;2023-05-19T05:55:03;102376.41;;;9.77;100.00
31285;BME280;56605;51.516;6.742;2023-05-19T05:57:28;102378.50;;;9.74;100.00
31285;BME280;56605;51.516;6.742;2023-05-19T05:59:55;102381.38;;;9.82;100.00
31285;BME280;56605;51.516;6.742;2023-05-19T06:02:20;102368.16;;;9.92;100.00
31285;BME280;56605;51.516;6.742;2023-05-19T06:04:46;102374.09;;;9.96;100.00
31285;BME280;56605;51.516;6.742;2023-05-19T06:07:11;102371.28;;;10.09;100.00
31285;BME280;56605;51.516;6.742;2023-05-19T06:09:36;102366.19;;;10.06;100.00
31285;BME280;56605;51.516;6.742;2023-05-19T06:12:02;102370.59;;;10.07;100.00
31285;BME280;56605;51.516;6.742;2023-05-19T06:14:27;102377.25;;;10.12;100.00
31285;BME280;56605;51.516;6.742;2023-05-19T06:16:55;102368.94;;;10.27;100.00
31285;BME280;56605;51.516;6.742;2023-05-19T06:19:21;102363.72;;;10.25;100.00
31285;BME280;56605;51.516;6.742;2023-05-19T06:21:46;102366.97;;;10.40;100.00
31285;BME280;56605;51.516;6.742;2023-05-19T06:24:11;102366.13;;;10.40;100.00
31285;BME280;56605;51.516;6.742;2023-05-19T06:26:37;102368.19;;;10.48;100.00
31285;BME280;56605;51.516;6.742;2023-05-19T06:29:02;102369.25;;;10.57;100.00
31285;BME280;56605;51.516;6.742;2023-05-19T06:31:28;102371.16;;;10.66;100.00
31285;BME280;56605;51.516;6.742;2023-05-19T06:33:56;102361.34;;;10.88;100.00
31285;BME280;56605;51.516;6.742;2023-05-19T06:36:21;102375.59;;;11.20;100.00
31285;BME280;56605;51.516;6.742;2023-05-19T06:38:47;102369.59;;;11.27;100.00
31285;BME280;56605;51.516;6.742;2023-05-19T06:41:12;102372.91;;;11.41;100.00
31285;BME280;56605;51.516;6.742;2023-05-19T06:43:37;102380.59;;;11.34;100.00
31285;BME280;56605;51.516;6.742;2023-05-19T06:46:03;102376.97;;;11.35;100.00
31285;BME280;56605;51.516;6.742;2023-05-19T06:48:29;102376.00;;;11.46;100.00
31285;BME280;56605;51.516;6.742;2023-05-19T06:50:54;102378.03;;;11.54;100.00
31285;BME280;56605;51.516;6.742;2023-05-19T06:53:20;102382.78;;;11.82;100.00
31285;BME280;56605;51.516;6.742;2023-05-19T06:55:45;102382.38;;;11.86;100.00
31285;BME280;56605;51.516;6.742;2023-05-19T06:58:14;102380.16;;;12.01;100.00
31285;BME280;56605;51.516;6.742;2023-05-19T07:00:40;102380.41;;;12.20;100.00
31285;BME280;56605;51.516;6.742;2023-05-19T07:03:05;102377.44;;;12.23;100.00
31285;BME280;56605;51.516;6.742;2023-05-19T07:05:30;102374.03;;;12.11;100.00
31285;BME280;56605;51.516;6.742;2023-05-19T07:07:56;102375.75;;;12.41;100.00
31285;BME280;56605;51.516;6.742;2023-05-19T07:10:21;102386.47;;;12.51;100.00
31285;BME280;56605;51.516;6.742;2023-05-19T07:12:46;102373.34;;;12.48;100.00
31285;BME280;56605;51.516;6.742;2023-05-19T07:15:12;102371.00;;;12.75;100.00
31285;BME280;56605;51.516;6.742;2023-05-19T07:17:37;102368.44;;;12.73;100.00
31285;BME280;56605;51.516;6.742;2023-05-19T07:20:02;102364.91;;;12.73;100.00
31285;BME280;56605;51.516;6.742;2023-05-19T07:22:31;102358.44;;;12.65;100.00
31285;BME280;56605;51.516;6.742;2023-05-19T07:24:59;102365.63;;;12.55;100.00
31285;BME280;56605;51.516;6.742;2023-05-19T07:27:24;102365.06;;;12.71;100.00
31285;BME280;56605;51.516;6.742;2023-05-19T07:29:50;102362.66;;;12.88;100.00
31285;BME280;56605;51.516;6.742;2023-05-19T07:32:15;102361.91;;;13.05;99.60
31285;BME280;56605;51.516;6.742;2023-05-19T07:34:40;102358.06;;;13.18;96.06
31285;BME280;56605;51.516;6.742;2023-05-19T07:37:05;102367.69;;;13.11;94.16
31285;BME280;56605;51.516;6.742;2023-05-19T07:39:32;102356.03;;;13.50;94.68
31285;BME280;56605;51.516;6.742;2023-05-19T07:41:57;102367.44;;;13.42;89.69
31285;BME280;56605;51.516;6.742;2023-05-19T07:44:23;102357.00;;;13.49;90.54
31285;BME280;56605;51.516;6.742;2023-05-19T07:46:48;102357.28;;;13.46;89.12
31285;BME280;56605;51.516;6.742;2023-05-19T07:49:14;102350.41;;;13.71;89.72
31285;BME280;56605;51.516;6.742;2023-05-19T07:51:39;102361.03;;;13.91;88.82
31285;BME280;56605;51.516;6.742;2023-05-19T07:54:06;102351.56;;;14.15;87.08
31285;BME280;56605;51.516;6.742;2023-05-19T07:56:32;102359.84;;;14.22;88.82
31285;BME280;56605;51.516;6.742;2023-05-19T07:58:57;102350.81;;;14.41;88.21
31285;BME280;56605;51.516;6.742;2023-05-19T08:01:23;102354.28;;;14.33;84.76
31285;BME280;56605;51.516;6.742;2023-05-19T08:03:48;102354.41;;;14.13;84.43
31285;BME280;56605;51.516;6.742;2023-05-19T08:06:13;102351.50;;;14.06;85.10
31285;BME280;56605;51.516;6.742;2023-05-19T08:08:39;102354.50;;;14.40;86.08
31285;BME280;56605;51.516;6.742;2023-05-19T08:11:04;102346.34;;;14.50;84.50
31285;BME280;56605;51.516;6.742;2023-05-19T08:13:30;102351.34;;;14.08;83.83
31285;BME280;56605;51.516;6.742;2023-05-19T08:15:56;102349.78;;;14.05;85.60
31285;BME280;56605;51.516;6.742;2023-05-19T08:18:27;102348.66;;;14.26;85.30
31285;BME280;56605;51.516;6.742;2023-05-19T08:20:52;102341.53;;;14.35;84.91
31285;BME280;56605;51.516;6.742;2023-05-19T08:23:17;102339.34;;;14.75;82.09
31285;BME280;56605;51.516;6.742;2023-05-19T08:25:43;102343.50;;;14.51;82.41
31285;BME280;56605;51.516;6.742;2023-05-19T08:28:09;102331.63;;;14.99;82.05
31285;BME280;56605;51.516;6.742;2023-05-19T08:30:34;102332.50;;;15.34;79.18
31285;BME280;56605;51.516;6.742;2023-05-19T08:33:00;102324.22;;;15.62;72.46
31285;BME280;56605;51.516;6.742;2023-05-19T08:35:26;102332.13;;;15.64;74.88
31285;BME280;56605;51.516;6.742;2023-05-19T08:37:51;102339.22;;;16.16;72.25
31285;BME280;56605;51.516;6.742;2023-05-19T08:40:17;102336.53;;;16.08;72.96
31285;BME280;56605;51.516;6.742;2023-05-19T08:42:46;102317.50;;;16.68;72.89
31285;BME280;56605;51.516;6.742;2023-05-19T08:45:12;102328.47;;;16.33;68.56
31285;BME280;56605;51.516;6.742;2023-05-19T08:47:41;102323.34;;;15.96;70.58
31285;BME280;56605;51.516;6.742;2023-05-19T08:50:10;102325.38;;;16.11;68.97
31285;BME280;56605;51.516;6.742;2023-05-19T08:52:46;102322.22;;;16.32;64.51
31285;BME280;56605;51.516;6.742;2023-05-19T08:55:26;102316.34;;;17.44;63.13
31285;BME280;56605;51.516;6.742;2023-05-19T08:57:53;102307.69;;;17.57;62.20
31285;BME280;56605;51.516;6.742;2023-05-19T09:00:19;102303.19;;;16.51;65.21
31285;BME280;56605;51.516;6.742;2023-05-19T09:02:48;102314.75;;;17.90;59.03
31285;BME280;56605;51.516;6.742;2023-05-19T09:05:15;102301.28;;;17.09;59.37
31285;BME280;56605;51.516;6.742;2023-05-19T09:07:42;102311.38;;;18.96;56.00
31285;BME280;56605;51.516;6.742;2023-05-19T09:10:08;102317.00;;;18.56;57.13
31285;BME280;56605;51.516;6.742;2023-05-19T09:12:38;102317.63;;;16.91;56.74
31285;BME280;56605;51.516;6.742;2023-05-19T09:15:04;102305.72;;;16.52;57.56
31285;BME280;56605;51.516;6.742;2023-05-19T09:17:30;102319.34;;;16.09;57.86
31285;BME280;56605;51.516;6.742;2023-05-19T09:19:55;102302.66;;;16.80;59.22
31285;BME280;56605;51.516;6.742;2023-05-19T09:22:22;102297.22;;;17.54;56.12
31285;BME280;56605;51.516;6.742;2023-05-19T09:24:49;102308.94;;;18.48;56.14
31285;BME280;56605;51.516;6.742;2023-05-19T09:27:20;102291.34;;;18.05;56.24
31285;BME280;56605;51.516;6.742;2023-05-19T09:29:47;102289.34;;;17.75;55.71
31285;BME280;56605;51.516;6.742;2023-05-19T09:32:23;102297.78;;;17.72;57.59
31285;BME280;56605;51.516;6.742;2023-05-19T09:34:48;102289.44;;;17.59;57.47
31285;BME280;56605;51.516;6.742;2023-05-19T09:37:15;102285.91;;;17.58;56.02
31285;BME280;56605;51.516;6.742;2023-05-19T09:39:40;102276.34;;;18.26;54.70
31285;BME280;56605;51.516;6.742;2023-05-19T09:42:05;102280.09;;;17.70;55.59
31285;BME280;56605;51.516;6.742;2023-05-19T09:44:33;102277.88;;;17.73;56.22
31285;BME280;56605;51.516;6.742;2023-05-19T09:46:59;102277.34;;;19.32;52.64
31285;BME280;56605;51.516;6.742;2023-05-19T09:49:25;102274.44;;;17.56;56.46
31285;BME280;56605;51.516;6.742;2023-05-19T09:51:54;102273.63;;;16.99;58.05
31285;BME280;56605;51.516;6.742;2023-05-19T09:54:21;102275.78;;;17.12;56.85
31285;BME280;56605;51.516;6.742;2023-05-19T09:57:01;102271.03;;;18.09;57.59
31285;BME280;56605;51.516;6.742;2023-05-19T09:59:28;102257.19;;;17.26;57.22
31285;BME280;56605;51.516;6.742;2023-05-19T10:01:55;102279.00;;;17.07;56.63
31285;BME280;56605;51.516;6.742;2023-05-19T10:04:22;102264.19;;;17.43;56.89
31285;BME280;56605;51.516;6.742;2023-05-19T10:06:49;102253.44;;;16.78;57.66
31285;BME280;56605;51.516;6.742;2023-05-19T10:09:25;102264.31;;;18.05;58.73
31285;BME280;56605;51.516;6.742;2023-05-19T10:11:51;102251.81;;;20.51;50.36
31285;BME280;56605;51.516;6.742;2023-05-19T10:14:21;102262.13;;;20.62;51.25
31285;BME280;56605;51.516;6.742;2023-05-19T10:16:49;102265.50;;;19.55;54.48
31285;BME280;56605;51.516;6.742;2023-05-19T10:19:15;102263.34;;;17.43;55.84
31285;BME280;56605;51.516;6.742;2023-05-19T10:21:40;102274.16;;;17.43;55.65
31285;BME280;56605;51.516;6.742;2023-05-19T10:24:06;102260.94;;;18.11;57.16
31285;BME280;56605;51.516;6.742;2023-05-19T10:26:32;102253.50;;;18.67;54.09
31285;BME280;56605;51.516;6.742;2023-05-19T10:28:58;102247.25;;;17.81;54.69
31285;BME280;56605;51.516;6.742;2023-05-19T10:31:24;102252.63;;;17.90;54.73
31285;BME280;56605;51.516;6.742;2023-05-19T10:34:04;102246.72;;;17.62;55.10
31285;BME280;56605;51.516;6.742;2023-05-19T10:36:46;102247.31;;;17.01;55.44
31285;BME280;56605;51.516;6.742;2023-05-19T10:39:24;102245.59;;;17.80;56.10
31285;BME280;56605;51.516;6.742;2023-05-19T10:45:03;102239.66;;;17.85;55.02
31285;BME280;56605;51.516;6.742;2023-05-19T10:47:32;102247.59;;;18.10;53.78
31285;BME280;56605;51.516;6.742;2023-05-19T10:50:03;102241.28;;;17.94;55.46
31285;BME280;56605;51.516;6.742;2023-05-19T10:52:28;102241.41;;;19.08;52.44
31285;BME280;56605;51.516;6.742;2023-05-19T10:54:54;102246.31;;;20.15;52.21
31285;BME280;56605;51.516;6.742;2023-05-19T10:57:29;102237.56;;;21.06;48.74
31285;BME280;56605;51.516;6.742;2023-05-19T10:59:58;102232.00;;;20.22;50.42
31285;BME280;56605;51.516;6.742;2023-05-19T11:02:41;102236.28;;;19.50;51.94
31285;BME280;56605;51.516;6.742;2023-05-19T11:05:10;102238.06;;;20.02;50.71
31285;BME280;56605;51.516;6.742;2023-05-19T11:07:40;102227.88;;;20.61;49.67
31285;BME280;56605;51.516;6.742;2023-05-19T11:10:06;102235.06;;;20.12;47.97
31285;BME280;56605;51.516;6.742;2023-05-19T11:12:40;102220.88;;;19.14;46.93
31285;BME280;56605;51.516;6.742;2023-05-19T11:15:10;102225.06;;;18.86;50.38
31285;BME280;56605;51.516;6.742;2023-05-19T11:17:35;102216.47;;;18.53;51.94
31285;BME280;56605;51.516;6.742;2023-05-19T11:20:01;102223.31;;;18.94;50.68
31285;BME280;56605;51.516;6.742;2023-05-19T11:22:27;102225.59;;;19.86;49.36
31285;BME280;56605;51.516;6.742;2023-05-19T11:24:55;102236.50;;;19.93;49.00
31285;BME280;56605;51.516;6.742;2023-05-19T11:27:33;102222.66;;;18.23;51.45
31285;BME280;56605;51.516;6.742;2023-05-19T11:32:33;102235.75;;;19.99;51.18
31285;BME280;56605;51.516;6.742;2023-05-19T11:34:59;102226.88;;;19.90;47.18
31285;BME280;56605;51.516;6.742;2023-05-19T11:37:25;102216.75;;;18.58;49.57
31285;BME280;56605;51.516;6.742;2023-05-19T11:39:53;102215.25;;;20.40;48.81
31285;BME280;56605;51.516;6.742;2023-05-19T11:42:18;102220.28;;;21.21;46.68
31285;BME280;56605;51.516;6.742;2023-05-19T11:44:44;102219.09;;;19.80;49.51
31285;BME280;56605;51.516;6.742;2023-05-19T11:47:11;102226.53;;;19.34;48.95
31285;BME280;56605;51.516;6.742;2023-05-19T11:49:37;102207.72;;;18.66;49.86
31285;BME280;56605;51.516;6.742;2023-05-19T11:52:03;102211.13;;;18.29;50.60
31285;BME280;56605;51.516;6.742;2023-05-19T11:54:32;102213.56;;;18.54;49.17
31285;BME280;56605;51.516;6.742;2023-05-19T11:57:03;102200.25;;;18.98;48.98
31285;BME280;56605;51.516;6.742;2023-05-19T11:59:34;102205.19;;;21.81;46.29
31285;BME280;56605;51.516;6.742;2023-05-19T12:02:00;102202.28;;;20.35;49.25
31285;BME280;56605;51.516;6.742;2023-05-19T12:04:27;102211.34;;;19.77;47.22
31285;BME280;56605;51.516;6.742;2023-05-19T12:06:53;102209.09;;;20.02;48.82
31285;BME280;56605;51.516;6.742;2023-05-19T12:09:18;102195.09;;;22.69;43.54
31285;BME280;56605;51.516;6.742;2023-05-19T12:11:46;102191.16;;;22.11;45.17
31285;BME280;56605;51.516;6.742;2023-05-19T12:14:12;102190.88;;;21.51;46.32
31285;BME280;56605;51.516;6.742;2023-05-19T12:16:37;102184.03;;;19.13;47.75
31285;BME280;56605;51.516;6.742;2023-05-19T12:19:05;102182.53;;;21.53;45.90
31285;BME280;56605;51.516;6.742;2023-05-19T12:21:31;102158.25;;;19.61;45.64
31285;BME280;56605;51.516;6.742;2023-05-19T12:23:57;102173.28;;;20.07;45.76
31285;BME280;56605;51.516;6.742;2023-05-19T12:26:23;102170.50;;;20.29;48.81
31285;BME280;56605;51.516;6.742;2023-05-19T12:28:48;102168.19;;;20.55;45.67
31285;BME280;56605;51.516;6.742;2023-05-19T12:31:15;102177.06;;;20.84;46.55
31285;BME280;56605;51.516;6.742;2023-05-19T12:33:40;102165.84;;;20.51;45.56
31285;BME280;56605;51.516;6.742;2023-05-19T12:36:06;102166.31;;;20.55;44.17
31285;BME280;56605;51.516;6.742;2023-05-19T12:38:32;102166.88;;;20.86;42.02
31285;BME280;56605;51.516;6.742;2023-05-19T12:41:01;102163.34;;;19.93;44.70
31285;BME280;56605;51.516;6.742;2023-05-19T12:43:27;102165.34;;;19.62;45.24
31285;BME280;56605;51.516;6.742;2023-05-19T12:45:52;102163.44;;;22.82;42.17
31285;BME280;56605;51.516;6.742;2023-05-19T12:48:20;102154.84;;;19.96;44.42
31285;BME280;56605;51.516;6.742;2023-05-19T12:50:47;102143.75;;;20.90;45.97
31285;BME280;56605;51.516;6.742;2023-05-19T12:53:13;102145.97;;;19.36;46.73
31285;BME280;56605;51.516;6.742;2023-05-19T12:55:39;102134.09;;;20.45;46.07
31285;BME280;56605;51.516;6.742;2023-05-19T12:58:09;102149.25;;;21.17;46.18
31285;BME280;56605;51.516;6.742;2023-05-19T13:00:43;102154.56;;;20.48;45.50
31285;BME280;56605;51.516;6.742;2023-05-19T13:03:16;102149.97;;;21.60;45.66
31285;BME280;56605;51.516;6.742;2023-05-19T13:05:44;102149.25;;;20.68;44.14